Subpeak Weather

  • Time Avg. Air Temp Dew Point Avg. Rel Humidity Avg. 2 Min Wind Speed Max Gust Velocity MGV Time MGV Direction Avg. Spot Wind Velocity
    2019-04-24 09:35:00-6° C-7° C95%6 km/h10 km/h09:35:00N7 km/h
    09:35:00-6° C-7° C95%6 km/h10 km/h09:35:00N7 km/h
    09:35:00-6° C-7° C95%6 km/h10 km/h09:35:00N7 km/h
    09:35:00-6° C-7° C95%6 km/h10 km/h09:35:00N7 km/h
    09:35:00-6° C-7° C95%6 km/h10 km/h09:35:00N7 km/h
    09:35:00-6° C-7° C95%6 km/h10 km/h09:35:00N7 km/h
    09:35:00-6° C-7° C95%6 km/h10 km/h09:35:00N7 km/h
    09:35:00-6° C-7° C95%6 km/h10 km/h09:35:00N7 km/h
    09:35:00-6° C-7° C95%6 km/h10 km/h09:35:00N7 km/h
    09:35:00-6° C-7° C95%6 km/h10 km/h09:35:00N7 km/h
    09:35:00-6° C-7° C95%6 km/h10 km/h09:35:00N7 km/h
    09:35:00-6° C-7° C95%6 km/h10 km/h09:35:00N7 km/h
    09:35:00-6° C-7° C95%6 km/h10 km/h09:35:00N7 km/h
    09:35:00-6° C-7° C95%6 km/h10 km/h09:35:00N7 km/h
    09:35:00-6° C-7° C95%6 km/h10 km/h09:35:00N7 km/h
    08:55:00-6° C-7° C96%11 km/h14 km/h08:51:00NW11 km/h
    07:55:00-5° C-6° C97%12 km/h14 km/h07:55:00NW11 km/h
    06:55:00-5° C-6° C97%12 km/h16 km/h06:52:00NW12 km/h
    05:55:00-5° C-5° C98%12 km/h19 km/h05:51:00NW13 km/h
    04:55:00-5° C-5° C98%19 km/h27 km/h04:55:00W20 km/h
    03:55:00-5° C-5° C98%18 km/h22 km/h03:51:00W18 km/h
    02:55:00-4° C-4° C99%21 km/h27 km/h02:52:00W21 km/h
    01:55:00-4° C-4° C99%19 km/h21 km/h01:52:00W19 km/h
    00:55:00-4° C-4° C99%17 km/h21 km/h00:54:00NW15 km/h
  • Time Avg. Air Temp Dew Point Avg. Rel Humidity Avg. 2 Min Wind Speed Max Gust Velocity MGV Time MGV Direction Avg. Spot Wind Velocity
    2019-04-24 09:35:00-6° C-7° C95%6 km/h10 km/h09:35:00N7 km/h
    09:35:00-6° C-7° C95%6 km/h10 km/h09:35:00N7 km/h
    09:35:00-6° C-7° C95%6 km/h10 km/h09:35:00N7 km/h
    09:35:00-6° C-7° C95%6 km/h10 km/h09:35:00N7 km/h
    09:35:00-6° C-7° C95%6 km/h10 km/h09:35:00N7 km/h
    09:35:00-6° C-7° C95%6 km/h10 km/h09:35:00N7 km/h
    09:35:00-6° C-7° C95%6 km/h10 km/h09:35:00N7 km/h
    09:35:00-6° C-7° C95%6 km/h10 km/h09:35:00N7 km/h
    09:35:00-6° C-7° C95%6 km/h10 km/h09:35:00N7 km/h
    09:35:00-6° C-7° C95%6 km/h10 km/h09:35:00N7 km/h
    09:35:00-6° C-7° C95%6 km/h10 km/h09:35:00N7 km/h
    09:35:00-6° C-7° C95%6 km/h10 km/h09:35:00N7 km/h
    09:35:00-6° C-7° C95%6 km/h10 km/h09:35:00N7 km/h

Explore More

Get Revelstoke news, offers, and events via email.